sensor_id;sensor_type;location;lat;lon;timestamp;P1;durP1;ratioP1;P2;durP2;ratioP2
68238;SDS011;55056;47.792;8.724;2022-10-16T00:01:30;4.73;;;1.50;;
68238;SDS011;55056;47.792;8.724;2022-10-16T00:03:56;3.90;;;1.50;;
68238;SDS011;55056;47.792;8.724;2022-10-16T00:06:22;3.93;;;1.50;;
68238;SDS011;55056;47.792;8.724;2022-10-16T00:08:48;4.30;;;1.60;;
68238;SDS011;55056;47.792;8.724;2022-10-16T00:11:18;3.93;;;1.70;;
68238;SDS011;55056;47.792;8.724;2022-10-16T00:13:44;4.00;;;1.70;;
68238;SDS011;55056;47.792;8.724;2022-10-16T00:16:10;3.58;;;1.40;;
68238;SDS011;55056;47.792;8.724;2022-10-16T00:18:36;3.83;;;1.50;;
68238;SDS011;55056;47.792;8.724;2022-10-16T00:21:10;3.67;;;1.40;;
68238;SDS011;55056;47.792;8.724;2022-10-16T00:23:36;4.00;;;1.40;;
68238;SDS011;55056;47.792;8.724;2022-10-16T00:26:03;3.90;;;1.60;;
68238;SDS011;55056;47.792;8.724;2022-10-16T00:28:30;5.32;;;1.60;;
68238;SDS011;55056;47.792;8.724;2022-10-16T00:30:55;4.75;;;1.58;;
68238;SDS011;55056;47.792;8.724;2022-10-16T00:33:21;3.87;;;1.30;;
68238;SDS011;55056;47.792;8.724;2022-10-16T00:35:46;4.33;;;1.33;;
68238;SDS011;55056;47.792;8.724;2022-10-16T00:38:12;3.70;;;1.43;;
68238;SDS011;55056;47.792;8.724;2022-10-16T00:40:37;4.33;;;1.40;;
68238;SDS011;55056;47.792;8.724;2022-10-16T00:43:08;3.87;;;1.27;;
68238;SDS011;55056;47.792;8.724;2022-10-16T00:45:34;3.97;;;1.40;;
68238;SDS011;55056;47.792;8.724;2022-10-16T00:47:59;3.90;;;1.40;;
68238;SDS011;55056;47.792;8.724;2022-10-16T00:50:30;4.17;;;1.40;;
68238;SDS011;55056;47.792;8.724;2022-10-16T00:52:56;4.00;;;1.50;;
68238;SDS011;55056;47.792;8.724;2022-10-16T00:55:22;3.83;;;1.50;;
68238;SDS011;55056;47.792;8.724;2022-10-16T00:57:48;3.72;;;1.52;;
68238;SDS011;55056;47.792;8.724;2022-10-16T01:00:16;3.58;;;1.30;;
68238;SDS011;55056;47.792;8.724;2022-10-16T01:02:51;3.58;;;1.40;;
68238;SDS011;55056;47.792;8.724;2022-10-16T01:05:16;3.50;;;1.40;;
68238;SDS011;55056;47.792;8.724;2022-10-16T01:07:59;4.33;;;1.70;;
68238;SDS011;55056;47.792;8.724;2022-10-16T01:10:30;4.90;;;1.63;;
68238;SDS011;55056;47.792;8.724;2022-10-16T01:15:27;4.97;;;2.13;;
68238;SDS011;55056;47.792;8.724;2022-10-16T01:20:27;4.88;;;2.00;;
68238;SDS011;55056;47.792;8.724;2022-10-16T01:23:05;4.03;;;1.70;;
68238;SDS011;55056;47.792;8.724;2022-10-16T01:28:17;4.32;;;1.45;;
68238;SDS011;55056;47.792;8.724;2022-10-16T01:30:44;3.70;;;1.48;;
68238;SDS011;55056;47.792;8.724;2022-10-16T01:33:14;4.25;;;1.52;;
68238;SDS011;55056;47.792;8.724;2022-10-16T01:35:43;4.43;;;1.55;;
68238;SDS011;55056;47.792;8.724;2022-10-16T01:38:21;3.83;;;1.40;;
68238;SDS011;55056;47.792;8.724;2022-10-16T01:40:51;3.90;;;1.30;;
68238;SDS011;55056;47.792;8.724;2022-10-16T01:43:22;3.30;;;1.40;;
68238;SDS011;55056;47.792;8.724;2022-10-16T01:45:50;3.85;;;1.50;;
68238;SDS011;55056;47.792;8.724;2022-10-16T01:48:18;3.90;;;1.40;;
68238;SDS011;55056;47.792;8.724;2022-10-16T01:50:44;3.95;;;1.25;;
68238;SDS011;55056;47.792;8.724;2022-10-16T01:53:14;3.90;;;1.40;;
68238;SDS011;55056;47.792;8.724;2022-10-16T01:55:42;3.92;;;1.45;;
68238;SDS011;55056;47.792;8.724;2022-10-16T01:58:10;3.90;;;1.30;;
68238;SDS011;55056;47.792;8.724;2022-10-16T02:00:37;4.03;;;1.40;;
68238;SDS011;55056;47.792;8.724;2022-10-16T02:03:03;3.58;;;1.35;;
68238;SDS011;55056;47.792;8.724;2022-10-16T02:05:37;3.85;;;1.30;;
68238;SDS011;55056;47.792;8.724;2022-10-16T02:08:04;3.72;;;1.50;;
68238;SDS011;55056;47.792;8.724;2022-10-16T02:10:29;4.17;;;1.30;;
68238;SDS011;55056;47.792;8.724;2022-10-16T02:13:06;3.38;;;1.40;;
68238;SDS011;55056;47.792;8.724;2022-10-16T02:15:32;3.27;;;1.30;;
68238;SDS011;55056;47.792;8.724;2022-10-16T02:17:57;4.00;;;1.30;;
68238;SDS011;55056;47.792;8.724;2022-10-16T02:20:25;3.60;;;1.30;;
68238;SDS011;55056;47.792;8.724;2022-10-16T02:22:51;3.75;;;1.40;;
68238;SDS011;55056;47.792;8.724;2022-10-16T02:25:19;3.50;;;1.20;;
68238;SDS011;55056;47.792;8.724;2022-10-16T02:30:30;3.63;;;1.30;;
68238;SDS011;55056;47.792;8.724;2022-10-16T02:32:57;3.40;;;1.23;;
68238;SDS011;55056;47.792;8.724;2022-10-16T02:35:24;3.20;;;1.20;;
68238;SDS011;55056;47.792;8.724;2022-10-16T02:37:50;3.83;;;1.30;;
68238;SDS011;55056;47.792;8.724;2022-10-16T02:40:17;3.50;;;1.10;;
68238;SDS011;55056;47.792;8.724;2022-10-16T02:42:42;3.30;;;1.23;;
68238;SDS011;55056;47.792;8.724;2022-10-16T02:45:13;3.53;;;1.20;;
68238;SDS011;55056;47.792;8.724;2022-10-16T02:47:38;3.15;;;1.10;;
68238;SDS011;55056;47.792;8.724;2022-10-16T02:50:04;3.80;;;1.20;;
68238;SDS011;55056;47.792;8.724;2022-10-16T02:52:29;3.67;;;1.17;;
68238;SDS011;55056;47.792;8.724;2022-10-16T02:54:54;3.40;;;1.10;;
68238;SDS011;55056;47.792;8.724;2022-10-16T02:57:20;3.20;;;1.10;;
68238;SDS011;55056;47.792;8.724;2022-10-16T02:59:45;3.40;;;1.20;;
68238;SDS011;55056;47.792;8.724;2022-10-16T03:02:11;3.20;;;1.17;;
68238;SDS011;55056;47.792;8.724;2022-10-16T03:04:36;3.30;;;1.20;;
68238;SDS011;55056;47.792;8.724;2022-10-16T03:07:02;4.80;;;1.23;;
68238;SDS011;55056;47.792;8.724;2022-10-16T03:09:28;3.40;;;1.20;;
68238;SDS011;55056;47.792;8.724;2022-10-16T03:11:53;3.50;;;1.20;;
68238;SDS011;55056;47.792;8.724;2022-10-16T03:14:18;3.30;;;1.23;;
68238;SDS011;55056;47.792;8.724;2022-10-16T03:16:44;3.50;;;1.20;;
68238;SDS011;55056;47.792;8.724;2022-10-16T03:19:10;3.30;;;1.20;;
68238;SDS011;55056;47.792;8.724;2022-10-16T03:21:35;3.50;;;1.20;;
68238;SDS011;55056;47.792;8.724;2022-10-16T03:24:00;3.60;;;1.20;;
68238;SDS011;55056;47.792;8.724;2022-10-16T03:26:26;4.20;;;1.10;;
68238;SDS011;55056;47.792;8.724;2022-10-16T03:28:51;3.17;;;1.20;;
68238;SDS011;55056;47.792;8.724;2022-10-16T03:31:16;3.63;;;1.20;;
68238;SDS011;55056;47.792;8.724;2022-10-16T03:33:42;3.90;;;1.20;;
68238;SDS011;55056;47.792;8.724;2022-10-16T03:36:07;3.20;;;1.10;;
68238;SDS011;55056;47.792;8.724;2022-10-16T03:38:33;4.27;;;1.20;;
68238;SDS011;55056;47.792;8.724;2022-10-16T03:40:58;4.87;;;1.40;;
68238;SDS011;55056;47.792;8.724;2022-10-16T03:43:24;3.00;;;1.20;;
68238;SDS011;55056;47.792;8.724;2022-10-16T03:45:50;3.33;;;1.10;;
68238;SDS011;55056;47.792;8.724;2022-10-16T03:48:15;3.30;;;1.20;;
68238;SDS011;55056;47.792;8.724;2022-10-16T03:50:41;3.47;;;1.20;;
68238;SDS011;55056;47.792;8.724;2022-10-16T03:53:07;3.27;;;1.20;;
68238;SDS011;55056;47.792;8.724;2022-10-16T03:55:34;3.40;;;1.20;;
68238;SDS011;55056;47.792;8.724;2022-10-16T03:58:00;3.53;;;1.17;;
68238;SDS011;55056;47.792;8.724;2022-10-16T04:00:26;3.33;;;1.10;;
68238;SDS011;55056;47.792;8.724;2022-10-16T04:02:52;3.30;;;1.20;;
68238;SDS011;55056;47.792;8.724;2022-10-16T04:05:20;3.50;;;1.10;;
68238;SDS011;55056;47.792;8.724;2022-10-16T04:07:45;3.67;;;1.23;;
68238;SDS011;55056;47.792;8.724;2022-10-16T04:10:11;3.30;;;1.20;;
68238;SDS011;55056;47.792;8.724;2022-10-16T04:12:36;3.00;;;1.10;;
68238;SDS011;55056;47.792;8.724;2022-10-16T04:15:02;3.07;;;1.10;;
68238;SDS011;55056;47.792;8.724;2022-10-16T04:17:27;3.03;;;1.17;;
68238;SDS011;55056;47.792;8.724;2022-10-16T04:19:53;3.00;;;1.20;;
68238;SDS011;55056;47.792;8.724;2022-10-16T04:22:19;4.35;;;1.15;;
68238;SDS011;55056;47.792;8.724;2022-10-16T04:24:45;3.07;;;1.10;;
68238;SDS011;55056;47.792;8.724;2022-10-16T04:27:10;3.33;;;1.20;;
68238;SDS011;55056;47.792;8.724;2022-10-16T04:29:36;2.90;;;1.00;;
68238;SDS011;55056;47.792;8.724;2022-10-16T04:32:01;3.10;;;1.10;;
68238;SDS011;55056;47.792;8.724;2022-10-16T04:34:27;3.50;;;1.03;;
68238;SDS011;55056;47.792;8.724;2022-10-16T04:36:52;3.10;;;1.00;;
68238;SDS011;55056;47.792;8.724;2022-10-16T04:39:18;3.30;;;1.10;;
68238;SDS011;55056;47.792;8.724;2022-10-16T04:41:43;3.30;;;1.10;;
68238;SDS011;55056;47.792;8.724;2022-10-16T04:44:08;4.53;;;1.00;;
68238;SDS011;55056;47.792;8.724;2022-10-16T04:46:34;3.20;;;1.10;;
68238;SDS011;55056;47.792;8.724;2022-10-16T04:48:59;3.77;;;1.40;;
68238;SDS011;55056;47.792;8.724;2022-10-16T04:51:27;4.17;;;1.50;;
68238;SDS011;55056;47.792;8.724;2022-10-16T04:53:53;4.28;;;1.50;;
68238;SDS011;55056;47.792;8.724;2022-10-16T04:56:20;3.67;;;1.20;;
68238;SDS011;55056;47.792;8.724;2022-10-16T04:58:46;3.97;;;1.40;;
68238;SDS011;55056;47.792;8.724;2022-10-16T05:01:11;3.60;;;1.20;;
68238;SDS011;55056;47.792;8.724;2022-10-16T05:03:37;3.43;;;1.20;;
68238;SDS011;55056;47.792;8.724;2022-10-16T05:06:04;3.90;;;1.20;;
68238;SDS011;55056;47.792;8.724;2022-10-16T05:08:30;3.28;;;1.10;;
68238;SDS011;55056;47.792;8.724;2022-10-16T05:10:55;3.07;;;1.20;;
68238;SDS011;55056;47.792;8.724;2022-10-16T05:13:21;3.90;;;1.30;;
68238;SDS011;55056;47.792;8.724;2022-10-16T05:15:48;3.40;;;1.20;;
68238;SDS011;55056;47.792;8.724;2022-10-16T05:18:14;3.53;;;1.10;;
68238;SDS011;55056;47.792;8.724;2022-10-16T05:20:39;3.87;;;1.20;;
68238;SDS011;55056;47.792;8.724;2022-10-16T05:23:05;3.33;;;1.00;;
68238;SDS011;55056;47.792;8.724;2022-10-16T05:25:30;3.53;;;1.10;;
68238;SDS011;55056;47.792;8.724;2022-10-16T05:27:55;3.30;;;1.20;;
68238;SDS011;55056;47.792;8.724;2022-10-16T05:30:21;4.57;;;1.20;;
68238;SDS011;55056;47.792;8.724;2022-10-16T05:32:50;3.00;;;1.03;;
68238;SDS011;55056;47.792;8.724;2022-10-16T05:35:16;3.20;;;1.20;;
68238;SDS011;55056;47.792;8.724;2022-10-16T05:37:43;3.17;;;1.10;;
68238;SDS011;55056;47.792;8.724;2022-10-16T05:40:09;4.00;;;1.13;;
68238;SDS011;55056;47.792;8.724;2022-10-16T05:42:35;3.22;;;1.30;;
68238;SDS011;55056;47.792;8.724;2022-10-16T05:45:00;3.20;;;1.10;;
68238;SDS011;55056;47.792;8.724;2022-10-16T05:47:26;3.97;;;1.03;;
68238;SDS011;55056;47.792;8.724;2022-10-16T05:49:51;3.00;;;1.10;;
68238;SDS011;55056;47.792;8.724;2022-10-16T05:52:17;3.10;;;1.10;;
68238;SDS011;55056;47.792;8.724;2022-10-16T05:54:43;3.00;;;0.97;;
68238;SDS011;55056;47.792;8.724;2022-10-16T05:57:08;2.67;;;0.93;;
68238;SDS011;55056;47.792;8.724;2022-10-16T05:59:35;3.00;;;1.10;;
68238;SDS011;55056;47.792;8.724;2022-10-16T06:02:03;3.63;;;1.20;;
68238;SDS011;55056;47.792;8.724;2022-10-16T06:04:29;3.23;;;1.07;;
68238;SDS011;55056;47.792;8.724;2022-10-16T06:06:57;3.03;;;1.20;;
68238;SDS011;55056;47.792;8.724;2022-10-16T06:09:26;3.40;;;1.10;;
68238;SDS011;55056;47.792;8.724;2022-10-16T06:11:51;4.00;;;1.10;;
68238;SDS011;55056;47.792;8.724;2022-10-16T06:14:17;3.93;;;1.20;;
68238;SDS011;55056;47.792;8.724;2022-10-16T06:16:42;4.13;;;1.20;;
68238;SDS011;55056;47.792;8.724;2022-10-16T06:19:07;4.83;;;1.30;;
68238;SDS011;55056;47.792;8.724;2022-10-16T06:21:34;3.72;;;1.17;;
68238;SDS011;55056;47.792;8.724;2022-10-16T06:24:00;3.97;;;1.10;;
68238;SDS011;55056;47.792;8.724;2022-10-16T06:26:31;3.40;;;1.20;;
68238;SDS011;55056;47.792;8.724;2022-10-16T06:28:58;3.13;;;1.10;;
68238;SDS011;55056;47.792;8.724;2022-10-16T06:31:24;3.78;;;1.10;;
68238;SDS011;55056;47.792;8.724;2022-10-16T06:33:52;4.18;;;1.20;;
68238;SDS011;55056;47.792;8.724;2022-10-16T06:36:18;4.63;;;1.20;;
68238;SDS011;55056;47.792;8.724;2022-10-16T06:38:44;3.13;;;1.10;;
68238;SDS011;55056;47.792;8.724;2022-10-16T06:41:13;5.17;;;1.20;;
68238;SDS011;55056;47.792;8.724;2022-10-16T06:43:40;4.13;;;1.30;;
68238;SDS011;55056;47.792;8.724;2022-10-16T06:46:05;3.87;;;1.20;;
68238;SDS011;55056;47.792;8.724;2022-10-16T06:48:33;5.97;;;1.30;;
68238;SDS011;55056;47.792;8.724;2022-10-16T06:50:59;3.20;;;1.20;;
68238;SDS011;55056;47.792;8.724;2022-10-16T06:53:25;3.80;;;1.15;;
68238;SDS011;55056;47.792;8.724;2022-10-16T06:55:51;3.58;;;1.50;;
68238;SDS011;55056;47.792;8.724;2022-10-16T06:58:17;3.77;;;1.50;;
68238;SDS011;55056;47.792;8.724;2022-10-16T07:00:42;4.00;;;1.50;;
68238;SDS011;55056;47.792;8.724;2022-10-16T07:03:08;3.80;;;1.40;;
68238;SDS011;55056;47.792;8.724;2022-10-16T07:05:41;5.03;;;1.60;;
68238;SDS011;55056;47.792;8.724;2022-10-16T07:08:10;3.70;;;1.50;;
68238;SDS011;55056;47.792;8.724;2022-10-16T07:10:48;5.63;;;1.80;;
68238;SDS011;55056;47.792;8.724;2022-10-16T07:13:13;6.17;;;1.70;;
68238;SDS011;55056;47.792;8.724;2022-10-16T07:15:39;5.17;;;1.70;;
68238;SDS011;55056;47.792;8.724;2022-10-16T07:18:05;6.20;;;1.90;;
68238;SDS011;55056;47.792;8.724;2022-10-16T07:20:30;4.87;;;1.80;;
68238;SDS011;55056;47.792;8.724;2022-10-16T07:22:56;4.90;;;1.87;;
68238;SDS011;55056;47.792;8.724;2022-10-16T07:25:22;5.33;;;1.90;;
68238;SDS011;55056;47.792;8.724;2022-10-16T07:27:49;4.80;;;1.83;;
68238;SDS011;55056;47.792;8.724;2022-10-16T07:30:36;5.78;;;1.88;;
68238;SDS011;55056;47.792;8.724;2022-10-16T07:33:02;5.57;;;1.92;;
68238;SDS011;55056;47.792;8.724;2022-10-16T07:35:28;5.90;;;2.20;;
68238;SDS011;55056;47.792;8.724;2022-10-16T07:37:54;4.97;;;2.00;;
68238;SDS011;55056;47.792;8.724;2022-10-16T07:40:20;5.47;;;2.00;;
68238;SDS011;55056;47.792;8.724;2022-10-16T07:42:47;6.80;;;1.88;;
68238;SDS011;55056;47.792;8.724;2022-10-16T07:45:14;5.73;;;2.10;;
68238;SDS011;55056;47.792;8.724;2022-10-16T07:47:39;8.50;;;4.40;;
68238;SDS011;55056;47.792;8.724;2022-10-16T07:50:06;9.55;;;4.45;;
68238;SDS011;55056;47.792;8.724;2022-10-16T07:52:31;7.75;;;3.78;;
68238;SDS011;55056;47.792;8.724;2022-10-16T07:54:57;7.20;;;3.50;;
68238;SDS011;55056;47.792;8.724;2022-10-16T07:57:23;6.88;;;3.28;;
68238;SDS011;55056;47.792;8.724;2022-10-16T07:59:49;7.23;;;3.43;;
68238;SDS011;55056;47.792;8.724;2022-10-16T08:02:14;8.23;;;3.30;;
68238;SDS011;55056;47.792;8.724;2022-10-16T08:04:40;8.67;;;3.23;;
68238;SDS011;55056;47.792;8.724;2022-10-16T08:07:06;7.33;;;3.20;;
68238;SDS011;55056;47.792;8.724;2022-10-16T08:09:31;6.82;;;2.90;;
68238;SDS011;55056;47.792;8.724;2022-10-16T08:12:01;7.57;;;2.92;;
68238;SDS011;55056;47.792;8.724;2022-10-16T08:14:27;7.80;;;3.05;;
68238;SDS011;55056;47.792;8.724;2022-10-16T08:16:53;6.83;;;3.27;;
68238;SDS011;55056;47.792;8.724;2022-10-16T08:19:22;8.63;;;3.20;;
68238;SDS011;55056;47.792;8.724;2022-10-16T08:21:47;6.88;;;3.15;;
68238;SDS011;55056;47.792;8.724;2022-10-16T08:24:13;7.03;;;3.00;;
68238;SDS011;55056;47.792;8.724;2022-10-16T08:26:39;7.00;;;2.90;;
68238;SDS011;55056;47.792;8.724;2022-10-16T08:29:04;8.73;;;3.73;;
68238;SDS011;55056;47.792;8.724;2022-10-16T08:31:30;9.00;;;3.57;;
68238;SDS011;55056;47.792;8.724;2022-10-16T08:33:56;6.43;;;2.70;;
68238;SDS011;55056;47.792;8.724;2022-10-16T08:36:22;7.43;;;2.90;;
68238;SDS011;55056;47.792;8.724;2022-10-16T08:38:48;6.85;;;2.60;;
68238;SDS011;55056;47.792;8.724;2022-10-16T08:43:44;6.73;;;2.40;;
68238;SDS011;55056;47.792;8.724;2022-10-16T08:48:57;5.45;;;2.30;;
68238;SDS011;55056;47.792;8.724;2022-10-16T08:51:31;5.50;;;2.08;;
68238;SDS011;55056;47.792;8.724;2022-10-16T08:53:58;8.48;;;2.10;;
68238;SDS011;55056;47.792;8.724;2022-10-16T08:56:25;5.10;;;1.90;;
68238;SDS011;55056;47.792;8.724;2022-10-16T08:58:51;6.10;;;1.80;;
68238;SDS011;55056;47.792;8.724;2022-10-16T09:01:17;4.88;;;2.03;;
68238;SDS011;55056;47.792;8.724;2022-10-16T09:06:40;4.53;;;2.00;;
68238;SDS011;55056;47.792;8.724;2022-10-16T09:11:56;6.40;;;1.90;;
68238;SDS011;55056;47.792;8.724;2022-10-16T09:17:03;5.53;;;1.80;;
68238;SDS011;55056;47.792;8.724;2022-10-16T09:19:34;5.85;;;1.80;;
68238;SDS011;55056;47.792;8.724;2022-10-16T09:22:04;9.05;;;2.00;;
68238;SDS011;55056;47.792;8.724;2022-10-16T09:24:47;4.75;;;1.90;;
68238;SDS011;55056;47.792;8.724;2022-10-16T09:27:13;4.03;;;1.60;;
68238;SDS011;55056;47.792;8.724;2022-10-16T09:29:39;4.82;;;1.90;;
68238;SDS011;55056;47.792;8.724;2022-10-16T09:32:12;5.43;;;1.90;;
68238;SDS011;55056;47.792;8.724;2022-10-16T09:34:42;4.90;;;1.70;;
68238;SDS011;55056;47.792;8.724;2022-10-16T09:37:09;5.30;;;1.88;;
68238;SDS011;55056;47.792;8.724;2022-10-16T09:39:44;4.95;;;1.70;;
68238;SDS011;55056;47.792;8.724;2022-10-16T09:42:11;5.73;;;1.60;;
68238;SDS011;55056;47.792;8.724;2022-10-16T09:44:39;4.45;;;1.73;;
68238;SDS011;55056;47.792;8.724;2022-10-16T09:47:06;6.37;;;1.80;;
68238;SDS011;55056;47.792;8.724;2022-10-16T09:49:37;7.97;;;1.90;;
68238;SDS011;55056;47.792;8.724;2022-10-16T09:52:04;5.63;;;1.77;;
68238;SDS011;55056;47.792;8.724;2022-10-16T09:54:30;7.28;;;1.90;;
68238;SDS011;55056;47.792;8.724;2022-10-16T09:57:14;7.53;;;1.88;;
68238;SDS011;55056;47.792;8.724;2022-10-16T09:59:52;5.28;;;1.70;;
68238;SDS011;55056;47.792;8.724;2022-10-16T10:02:29;4.10;;;1.70;;
68238;SDS011;55056;47.792;8.724;2022-10-16T10:04:55;5.07;;;1.50;;
68238;SDS011;55056;47.792;8.724;2022-10-16T10:07:24;4.80;;;1.87;;
68238;SDS011;55056;47.792;8.724;2022-10-16T10:09:50;4.85;;;1.60;;
68238;SDS011;55056;47.792;8.724;2022-10-16T10:12:19;5.17;;;1.80;;
68238;SDS011;55056;47.792;8.724;2022-10-16T10:14:46;5.50;;;1.70;;
68238;SDS011;55056;47.792;8.724;2022-10-16T10:17:19;4.03;;;1.50;;
68238;SDS011;55056;47.792;8.724;2022-10-16T10:19:50;6.35;;;1.60;;
68238;SDS011;55056;47.792;8.724;2022-10-16T10:22:23;4.78;;;1.50;;
68238;SDS011;55056;47.792;8.724;2022-10-16T10:25:07;4.50;;;1.60;;
68238;SDS011;55056;47.792;8.724;2022-10-16T10:41:26;4.28;;;1.50;;
68238;SDS011;55056;47.792;8.724;2022-10-16T10:54:18;4.30;;;1.43;;
68238;SDS011;55056;47.792;8.724;2022-10-16T10:56:47;4.40;;;1.38;;
68238;SDS011;55056;47.792;8.724;2022-10-16T11:01:56;5.32;;;1.30;;
68238;SDS011;55056;47.792;8.724;2022-10-16T11:06:58;4.55;;;1.40;;
68238;SDS011;55056;47.792;8.724;2022-10-16T11:09:25;3.70;;;1.30;;
68238;SDS011;55056;47.792;8.724;2022-10-16T11:14:26;3.50;;;1.30;;
68238;SDS011;55056;47.792;8.724;2022-10-16T11:16:57;3.58;;;1.50;;
68238;SDS011;55056;47.792;8.724;2022-10-16T11:22:06;3.97;;;1.30;;
68238;SDS011;55056;47.792;8.724;2022-10-16T11:24:41;4.13;;;1.30;;
68238;SDS011;55056;47.792;8.724;2022-10-16T11:27:09;4.57;;;1.48;;
68238;SDS011;55056;47.792;8.724;2022-10-16T11:29:40;4.43;;;1.40;;
68238;SDS011;55056;47.792;8.724;2022-10-16T11:32:13;3.25;;;1.40;;
68238;SDS011;55056;47.792;8.724;2022-10-16T11:34:48;4.85;;;1.50;;
68238;SDS011;55056;47.792;8.724;2022-10-16T11:37:17;4.53;;;1.40;;
68238;SDS011;55056;47.792;8.724;2022-10-16T11:39:44;8.48;;;1.50;;
68238;SDS011;55056;47.792;8.724;2022-10-16T11:42:16;6.07;;;1.40;;
68238;SDS011;55056;47.792;8.724;2022-10-16T11:47:43;5.57;;;1.30;;
68238;SDS011;55056;47.792;8.724;2022-10-16T11:55:33;6.55;;;1.60;;
68238;SDS011;55056;47.792;8.724;2022-10-16T11:58:02;3.70;;;1.30;;
68238;SDS011;55056;47.792;8.724;2022-10-16T12:00:37;5.70;;;1.30;;
68238;SDS011;55056;47.792;8.724;2022-10-16T12:03:11;5.10;;;1.50;;
68238;SDS011;55056;47.792;8.724;2022-10-16T12:08:14;3.47;;;1.37;;
68238;SDS011;55056;47.792;8.724;2022-10-16T12:10:41;3.80;;;1.40;;
68238;SDS011;55056;47.792;8.724;2022-10-16T12:18:39;3.90;;;1.30;;
68238;SDS011;55056;47.792;8.724;2022-10-16T12:21:04;4.15;;;1.20;;
68238;SDS011;55056;47.792;8.724;2022-10-16T12:23:32;3.90;;;1.30;;
68238;SDS011;55056;47.792;8.724;2022-10-16T12:25:58;3.75;;;1.40;;
68238;SDS011;55056;47.792;8.724;2022-10-16T12:28:28;3.80;;;1.25;;
68238;SDS011;55056;47.792;8.724;2022-10-16T12:30:58;4.15;;;1.35;;
68238;SDS011;55056;47.792;8.724;2022-10-16T12:33:25;3.92;;;1.40;;
68238;SDS011;55056;47.792;8.724;2022-10-16T12:35:51;4.10;;;1.40;;
68238;SDS011;55056;47.792;8.724;2022-10-16T12:38:21;3.50;;;1.30;;
68238;SDS011;55056;47.792;8.724;2022-10-16T12:41:00;4.15;;;1.30;;
68238;SDS011;55056;47.792;8.724;2022-10-16T12:43:35;4.18;;;1.40;;
68238;SDS011;55056;47.792;8.724;2022-10-16T12:48:30;3.57;;;1.20;;
68238;SDS011;55056;47.792;8.724;2022-10-16T12:53:43;3.93;;;1.40;;
68238;SDS011;55056;47.792;8.724;2022-10-16T12:56:26;5.17;;;1.40;;
68238;SDS011;55056;47.792;8.724;2022-10-16T12:59:28;4.70;;;1.20;;
68238;SDS011;55056;47.792;8.724;2022-10-16T13:01:55;4.22;;;1.20;;
68238;SDS011;55056;47.792;8.724;2022-10-16T13:17:22;3.10;;;1.10;;
68238;SDS011;55056;47.792;8.724;2022-10-16T13:20:06;3.90;;;1.20;;
68238;SDS011;55056;47.792;8.724;2022-10-16T13:25:18;2.80;;;1.08;;
68238;SDS011;55056;47.792;8.724;2022-10-16T13:28:00;4.40;;;1.13;;
68238;SDS011;55056;47.792;8.724;2022-10-16T13:30:30;3.80;;;1.10;;
68238;SDS011;55056;47.792;8.724;2022-10-16T13:32:59;4.45;;;1.10;;
68238;SDS011;55056;47.792;8.724;2022-10-16T13:35:26;3.63;;;1.02;;
68238;SDS011;55056;47.792;8.724;2022-10-16T13:38:02;4.00;;;1.20;;
68238;SDS011;55056;47.792;8.724;2022-10-16T13:40:28;4.53;;;1.20;;
68238;SDS011;55056;47.792;8.724;2022-10-16T13:42:59;4.22;;;1.20;;
68238;SDS011;55056;47.792;8.724;2022-10-16T13:45:24;3.03;;;1.10;;
68238;SDS011;55056;47.792;8.724;2022-10-16T13:48:01;3.55;;;1.10;;
68238;SDS011;55056;47.792;8.724;2022-10-16T13:50:26;3.33;;;1.07;;
68238;SDS011;55056;47.792;8.724;2022-10-16T13:52:52;3.17;;;1.10;;
68238;SDS011;55056;47.792;8.724;2022-10-16T13:55:28;3.53;;;1.10;;
68238;SDS011;55056;47.792;8.724;2022-10-16T13:57:53;4.07;;;1.10;;
68238;SDS011;55056;47.792;8.724;2022-10-16T14:00:29;4.50;;;1.10;;
68238;SDS011;55056;47.792;8.724;2022-10-16T14:02:57;4.20;;;1.10;;
68238;SDS011;55056;47.792;8.724;2022-10-16T14:05:23;3.50;;;1.30;;
68238;SDS011;55056;47.792;8.724;2022-10-16T14:07:49;4.00;;;1.20;;
68238;SDS011;55056;47.792;8.724;2022-10-16T14:10:29;3.70;;;1.10;;
68238;SDS011;55056;47.792;8.724;2022-10-16T14:12:59;3.30;;;1.20;;
68238;SDS011;55056;47.792;8.724;2022-10-16T14:15:26;4.10;;;1.20;;
68238;SDS011;55056;47.792;8.724;2022-10-16T14:17:56;3.10;;;1.13;;
68238;SDS011;55056;47.792;8.724;2022-10-16T14:20:28;5.03;;;1.30;;
68238;SDS011;55056;47.792;8.724;2022-10-16T14:23:03;3.50;;;1.20;;
68238;SDS011;55056;47.792;8.724;2022-10-16T14:25:30;3.43;;;1.00;;
68238;SDS011;55056;47.792;8.724;2022-10-16T14:27:57;3.60;;;1.20;;
68238;SDS011;55056;47.792;8.724;2022-10-16T14:30:25;4.38;;;1.10;;
68238;SDS011;55056;47.792;8.724;2022-10-16T14:32:55;3.67;;;1.13;;
68238;SDS011;55056;47.792;8.724;2022-10-16T14:37:55;3.20;;;1.10;;
68238;SDS011;55056;47.792;8.724;2022-10-16T14:40:25;3.33;;;1.30;;
68238;SDS011;55056;47.792;8.724;2022-10-16T14:42:51;4.47;;;1.27;;
68238;SDS011;55056;47.792;8.724;2022-10-16T14:45:22;2.90;;;1.20;;
68238;SDS011;55056;47.792;8.724;2022-10-16T14:50:47;4.25;;;1.30;;
68238;SDS011;55056;47.792;8.724;2022-10-16T14:53:13;3.10;;;1.20;;
68238;SDS011;55056;47.792;8.724;2022-10-16T14:55:38;3.60;;;1.30;;
68238;SDS011;55056;47.792;8.724;2022-10-16T14:58:04;4.32;;;1.30;;
68238;SDS011;55056;47.792;8.724;2022-10-16T15:00:33;3.65;;;1.20;;
68238;SDS011;55056;47.792;8.724;2022-10-16T15:03:01;3.58;;;1.10;;
68238;SDS011;55056;47.792;8.724;2022-10-16T15:05:30;3.78;;;1.02;;
68238;SDS011;55056;47.792;8.724;2022-10-16T15:07:57;3.42;;;1.25;;
68238;SDS011;55056;47.792;8.724;2022-10-16T15:10:23;3.90;;;1.20;;
68238;SDS011;55056;47.792;8.724;2022-10-16T15:12:49;4.45;;;1.30;;
68238;SDS011;55056;47.792;8.724;2022-10-16T15:17:40;5.00;;;1.33;;
68238;SDS011;55056;47.792;8.724;2022-10-16T15:20:06;3.27;;;1.37;;
68238;SDS011;55056;47.792;8.724;2022-10-16T15:22:38;5.20;;;1.48;;
68238;SDS011;55056;47.792;8.724;2022-10-16T15:25:17;4.17;;;1.23;;
68238;SDS011;55056;47.792;8.724;2022-10-16T15:27:48;5.03;;;1.40;;
68238;SDS011;55056;47.792;8.724;2022-10-16T15:30:14;4.00;;;1.33;;
68238;SDS011;55056;47.792;8.724;2022-10-16T15:32:39;3.93;;;1.40;;
68238;SDS011;55056;47.792;8.724;2022-10-16T15:35:08;4.67;;;1.37;;
68238;SDS011;55056;47.792;8.724;2022-10-16T15:37:33;4.00;;;1.30;;
68238;SDS011;55056;47.792;8.724;2022-10-16T15:39:59;4.60;;;1.40;;
68238;SDS011;55056;47.792;8.724;2022-10-16T15:42:25;4.80;;;1.40;;
68238;SDS011;55056;47.792;8.724;2022-10-16T15:44:53;4.18;;;1.40;;
68238;SDS011;55056;47.792;8.724;2022-10-16T15:47:19;5.90;;;1.47;;
68238;SDS011;55056;47.792;8.724;2022-10-16T15:49:44;3.87;;;1.30;;
68238;SDS011;55056;47.792;8.724;2022-10-16T15:52:11;3.67;;;1.33;;
68238;SDS011;55056;47.792;8.724;2022-10-16T15:54:36;5.10;;;1.50;;
68238;SDS011;55056;47.792;8.724;2022-10-16T15:57:05;4.78;;;1.40;;
68238;SDS011;55056;47.792;8.724;2022-10-16T15:59:30;4.20;;;1.10;;
68238;SDS011;55056;47.792;8.724;2022-10-16T16:01:56;4.63;;;1.20;;
68238;SDS011;55056;47.792;8.724;2022-10-16T16:04:23;3.90;;;1.30;;
68238;SDS011;55056;47.792;8.724;2022-10-16T16:06:49;5.60;;;1.40;;
68238;SDS011;55056;47.792;8.724;2022-10-16T16:09:14;5.10;;;1.60;;
68238;SDS011;55056;47.792;8.724;2022-10-16T16:11:40;7.88;;;1.58;;
68238;SDS011;55056;47.792;8.724;2022-10-16T16:14:06;4.83;;;1.40;;
68238;SDS011;55056;47.792;8.724;2022-10-16T16:16:32;4.47;;;1.40;;
68238;SDS011;55056;47.792;8.724;2022-10-16T16:19:03;5.25;;;1.40;;
68238;SDS011;55056;47.792;8.724;2022-10-16T16:21:30;5.40;;;1.48;;
68238;SDS011;55056;47.792;8.724;2022-10-16T16:23:55;6.30;;;1.57;;
68238;SDS011;55056;47.792;8.724;2022-10-16T16:26:24;5.30;;;1.63;;
68238;SDS011;55056;47.792;8.724;2022-10-16T16:28:55;8.73;;;2.80;;
68238;SDS011;55056;47.792;8.724;2022-10-16T16:31:25;9.85;;;2.10;;
68238;SDS011;55056;47.792;8.724;2022-10-16T16:33:50;6.97;;;1.90;;
68238;SDS011;55056;47.792;8.724;2022-10-16T16:36:16;7.17;;;1.80;;